createdAt,value
2023-01-01T00:03:22.037Z,52.59
2023-01-01T00:13:22.297Z,52.92
2023-01-01T00:23:22.235Z,53.45
2023-01-01T00:33:22.399Z,54.08
2023-01-01T00:43:22.433Z,55.02
2023-01-01T00:53:24.824Z,56.06
2023-01-01T01:03:22.939Z,55.32
2023-01-01T01:13:23.050Z,54.39
2023-01-01T01:23:23.083Z,53.42
2023-01-01T01:33:23.418Z,53.02
2023-01-01T01:43:23.458Z,53.34
2023-01-01T01:53:23.793Z,64.53
2023-01-01T02:03:23.904Z,67.79
2023-01-01T02:13:25.124Z,68.74
2023-01-01T02:23:24.026Z,67.61
2023-01-01T02:33:24.329Z,54.90
2023-01-01T02:43:25.154Z,53.65
2023-01-01T02:53:24.679Z,52.08
2023-01-01T03:03:24.760Z,51.86
2023-01-01T03:13:24.892Z,51.88
2023-01-01T03:23:24.924Z,51.98
2023-01-01T03:33:25.328Z,51.98
2023-01-01T03:43:25.365Z,51.75
2023-01-01T03:53:25.797Z,52.61
2023-01-01T04:03:25.895Z,58.86
2023-01-01T04:13:26.061Z,66.36
2023-01-01T04:23:26.094Z,68.97
2023-01-01T04:33:26.434Z,71.22
2023-01-01T04:43:26.462Z,72.58
2023-01-01T04:53:26.812Z,73.03
2023-01-01T05:03:26.841Z,73.44
2023-01-01T05:13:28.206Z,72.52
2023-01-01T05:23:27.247Z,75.04
2023-01-01T05:33:27.647Z,75.24
2023-01-01T05:43:27.680Z,74.29
2023-01-01T05:53:28.015Z,74.32
2023-01-01T06:03:28.042Z,76.34
2023-01-01T06:13:28.383Z,78.61
2023-01-01T06:23:28.419Z,78.57
2023-01-01T06:33:28.657Z,79.88
2023-01-01T06:43:28.888Z,81.19
2023-01-01T06:53:29.244Z,81.70
2023-01-01T07:03:29.323Z,80.60
2023-01-01T07:13:29.392Z,80.43
2023-01-01T07:23:29.626Z,81.60
2023-01-01T07:33:29.971Z,84.14
2023-01-01T07:43:30.011Z,83.59
2023-01-01T07:53:30.379Z,81.76
2023-01-01T08:03:30.425Z,83.25
2023-01-01T08:13:30.507Z,83.31
2023-01-01T08:23:30.733Z,81.38
2023-01-01T08:33:30.984Z,80.21
2023-01-01T08:43:31.208Z,79.42
2023-01-01T08:53:33.435Z,77.06
2023-01-01T09:03:31.727Z,75.52
2023-01-01T09:13:31.846Z,71.94
2023-01-01T09:23:31.864Z,69.62
2023-01-01T09:33:32.233Z,69.38
2023-01-01T09:43:32.264Z,68.91
2023-01-01T09:53:32.583Z,67.12
2023-01-01T10:03:32.732Z,67.39
2023-01-01T10:13:32.832Z,66.00
2023-01-01T10:23:32.862Z,64.79
2023-01-01T10:33:33.112Z,64.94
2023-01-01T10:43:33.355Z,64.81
2023-01-01T10:53:33.628Z,63.73
2023-01-01T11:03:33.693Z,64.41
2023-01-01T11:13:33.941Z,63.78
2023-01-01T11:23:34.206Z,61.96
2023-01-01T11:33:34.331Z,59.11
2023-01-01T11:43:34.346Z,57.28
2023-01-01T11:53:34.702Z,53.72
2023-01-01T12:03:34.790Z,53.32
2023-01-01T12:13:35.875Z,52.17
2023-01-01T12:23:35.102Z,50.93
2023-01-01T12:33:35.323Z,49.38
2023-01-01T12:43:35.561Z,50.09
2023-01-01T12:53:35.921Z,50.29
2023-01-01T13:03:36.304Z,49.46
2023-01-01T13:13:36.276Z,48.16
2023-01-01T13:23:36.321Z,50.18
2023-01-01T13:33:36.644Z,50.93
2023-01-01T13:43:36.673Z,52.44
2023-01-01T13:53:37.019Z,54.61
2023-01-01T14:03:37.070Z,56.35
2023-01-01T14:13:37.397Z,57.14
2023-01-01T14:23:37.464Z,57.89
2023-01-01T14:33:37.839Z,59.49
2023-01-01T14:43:37.865Z,58.28
2023-01-01T14:53:38.133Z,60.97
2023-01-01T15:03:38.161Z,60.36
2023-01-01T15:13:38.493Z,61.30
2023-01-01T15:23:38.524Z,63.49
2023-01-01T15:33:38.856Z,64.36
2023-01-01T15:43:38.895Z,66.46
2023-01-01T15:53:39.242Z,68.24
2023-01-01T16:03:39.283Z,70.48
2023-01-01T16:13:39.600Z,71.46
2023-01-01T16:23:39.649Z,72.41
2023-01-01T16:33:39.969Z,70.75
2023-01-01T16:43:39.998Z,67.02
2023-01-01T16:53:40.238Z,59.89
2023-01-01T17:03:40.535Z,58.95
2023-01-01T17:13:40.719Z,58.65
2023-01-01T17:23:40.748Z,58.75
2023-01-01T17:33:41.083Z,57.64
2023-01-01T17:43:41.115Z,57.86
2023-01-01T17:53:41.614Z,57.23
2023-01-01T18:03:41.548Z,56.62
2023-01-01T18:13:41.628Z,56.95
2023-01-01T18:23:42.000Z,56.85
2023-01-01T18:33:43.149Z,55.50
2023-01-01T18:43:42.185Z,55.71
2023-01-01T18:53:42.463Z,56.24
2023-01-01T19:03:43.354Z,56.87
2023-01-01T19:13:42.763Z,54.79
2023-01-01T19:23:43.045Z,54.82
2023-01-01T19:33:46.154Z,54.08
2023-01-01T19:43:43.189Z,53.65
2023-01-01T19:53:43.476Z,53.45
2023-01-01T20:03:54.068Z,52.20
2023-01-01T20:13:48.946Z,52.53
2023-01-01T20:23:44.885Z,51.90
2023-01-01T20:33:44.363Z,52.56
2023-01-01T20:43:44.422Z,52.13
2023-01-01T20:53:44.635Z,52.03
2023-01-01T21:03:44.813Z,52.33
2023-01-01T21:13:44.763Z,52.64
2023-01-01T21:23:48.914Z,52.03
2023-01-01T21:33:45.040Z,52.64
2023-01-01T21:43:45.307Z,53.17
2023-01-01T21:53:45.331Z,52.97
2023-01-01T22:03:45.579Z,54.54
2023-01-01T22:13:45.802Z,54.00
2023-01-01T22:23:46.032Z,53.30
2023-01-01T22:33:46.259Z,52.25
2023-01-01T22:43:46.519Z,51.32
2023-01-01T22:53:47.317Z,52.25
2023-01-01T23:03:46.999Z,52.25
2023-01-01T23:13:47.061Z,52.03
2023-01-01T23:23:47.374Z,51.52
2023-01-01T23:33:47.426Z,49.62
2023-01-01T23:43:47.751Z,49.19
2023-01-01T23:53:47.771Z,49.80
